0301 — QST0301 — position and weather

sailwx.info

Track history (hours):
 
Tides and Currents Weather Stations Pressure Air Temp Water Temp Dewpoint Dewpoint Depression Visibility Wind Speed Wind Dir Waves Ship Positions

0301

Last reported at 2018-Jun-12 20:47 UTC. Time now 2018-Jun-20 09:23 UTC.
Position N 34°09' W 119°13'.

Length 13 m; draft 1 m.

Type: Military. MMSI: 369970282.

Date/timePositionNaut miles runAvg speedWind from/ knotsBaromVisibWave heightAir tempDewpointWater temp
2018-Jun-12 20:47N 34°09' W 119°13'0 0.0
2018-Jun-12 20:30N 34°09' W 119°13'4 7.7
2018-Jun-12 20:01N 34°06' W 119°10'0 0.6
2018-Jun-12 19:30N 34°06' W 119°10'0 1.0
2018-Jun-12 19:00N 34°06' W 119°10'4 6.8
2018-Jun-12 18:26N 34°09' W 119°13'  
2018-Jun-05 20:06N 34°09' W 119°13'0 0.0
2018-Jun-05 20:00N 34°09' W 119°13'1 1.5
2018-Jun-05 19:26N 34°10' W 119°13'0 0.0
2018-Jun-05 19:00N 34°10' W 119°13'816.8
2018-Jun-05 18:31N 34°04' W 119°07'1122.1
2018-Jun-05 18:01N 33°57' W 118°56'66 3.8
2018-Jun-05 00:40N 32°59' W 118°18'22 0.8
2018-Jun-03 20:21N 33°21' W 118°19'0 0.5
2018-Jun-03 20:00N 33°21' W 118°20'0 0.0
2018-Jun-03 19:27N 33°21' W 118°20'613.2
2018-Jun-03 19:00N 33°26' W 118°23'1121.4
2018-Jun-03 18:30N 33°33' W 118°33'1020.8
2018-Jun-03 18:00N 33°41' W 118°41'1821.2
2018-Jun-03 17:11N 33°53' W 118°56'421.2
2018-Jun-03 17:00N 33°56' W 118°59'1021.0
2018-Jun-03 16:31N 34°04' W 119°07'713.7
2018-Jun-03 16:00N 34°09' W 119°13'0 0.0
2018-Jun-03 15:30N 34°09' W 119°13'  
Track history (hours):
 
Tides and Currents Weather Stations Pressure Air Temp Water Temp Dewpoint Dewpoint Depression Visibility Wind Speed Wind Dir Waves Ship Positions

0301

Last reported at 2018-Jun-12 20:47 UTC. Time now 2018-Jun-20 09:23 UTC.
Position N 34°09' W 119°13'.

Length 13 m; draft 1 m.

Type: Military. MMSI: 369970282.

Date/timePositionNaut miles runAvg speedWind from/ knotsBaromVisibWave heightAir tempDewpointWater temp
2018-Jun-12 20:47N 34°09' W 119°13'0 0.0
2018-Jun-12 20:30N 34°09' W 119°13'4 7.7
2018-Jun-12 20:01N 34°06' W 119°10'0 0.6
2018-Jun-12 19:30N 34°06' W 119°10'0 1.0
2018-Jun-12 19:00N 34°06' W 119°10'4 6.8
2018-Jun-12 18:26N 34°09' W 119°13'  
2018-Jun-05 20:06N 34°09' W 119°13'0 0.0
2018-Jun-05 20:00N 34°09' W 119°13'1 1.5
2018-Jun-05 19:26N 34°10' W 119°13'0 0.0
2018-Jun-05 19:00N 34°10' W 119°13'816.8
2018-Jun-05 18:31N 34°04' W 119°07'1122.1
2018-Jun-05 18:01N 33°57' W 118°56'66 3.8
2018-Jun-05 00:40N 32°59' W 118°18'22 0.8
2018-Jun-03 20:21N 33°21' W 118°19'0 0.5
2018-Jun-03 20:00N 33°21' W 118°20'0 0.0
2018-Jun-03 19:27N 33°21' W 118°20'613.2
2018-Jun-03 19:00N 33°26' W 118°23'1121.4
2018-Jun-03 18:30N 33°33' W 118°33'1020.8
2018-Jun-03 18:00N 33°41' W 118°41'1821.2
2018-Jun-03 17:11N 33°53' W 118°56'421.2
2018-Jun-03 17:00N 33°56' W 118°59'1021.0
2018-Jun-03 16:31N 34°04' W 119°07'713.7
2018-Jun-03 16:00N 34°09' W 119°13'0 0.0
2018-Jun-03 15:30N 34°09' W 119°13'  

Dump ship's entire track history